Data for 12/31/2009

Time Sea-Level Adjusted Pressure Absolute Pressure Temperature Relative Humidity Dew Point   
(mb) (inHg) (mb) (inHg) (C) (F) (%) (C) (F)
00:05 1018 30.06 847 25.01 -4.3 24.3 70 -8.9 16
00:10 1018 30.06 847 25.01 -4.5 23.9 72 -8.8 16.2
00:15 1018 30.06 847 25.01 -5 22.9 75 -8.8 16.1
00:20 1018 30.06 847 25.01 -5.1 22.8 75 -8.9 16
00:25 1018 30.06 847 25.01 -5 23 73 -9.1 15.7
00:30 1018 30.06 847 25.01 -4.7 23.5 72 -9.1 15.6
00:35 1018 30.06 847 25.01 -4.6 23.8 70 -9.2 15.5
00:40 1018 30.06 847 25.01 -4.6 23.7 71 -9.2 15.5
00:45 1018 30.06 847 25.01 -4.6 23.7 70 -9.2 15.4
00:50 1018 30.06 847 25.01 -4.4 24 70 -9.2 15.5
00:55 1018 30.06 847 25.01 -4.4 24.1 69 -9.3 15.3
01:00 1018 30.06 847 25.01 -4.2 24.5 67 -9.4 15.1
01:05 1018 30.06 847 25.01 -4 24.8 67 -9.2 15.4
01:10 1018 30.06 847 25.01 -4 24.8 66 -9.4 15.1
01:15 1018 30.06 847 25.01 -4 24.7 66 -9.4 15
01:20 1018 30.06 847 25.01 -4.1 24.6 67 -9.3 15.2
01:25 1018 30.06 847 25.01 -4.4 24 67 -9.7 14.5
01:30 1018 30.06 847 25.01 -4.2 24.4 64 -10 14
01:35 1018 30.06 847 25.01 -3.9 24.9 64 -9.7 14.5
01:40 1018 30.06 847 25.01 -3.7 25.3 62 -10 14
01:45 1018 30.06 847 25.01 -3.5 25.7 61 -9.9 14.1
01:50 1018 30.06 847 25.01 -3.6 25.6 62 -9.9 14.2
01:55 1018 30.06 847 25.01 -3.7 25.3 62 -9.9 14.2
02:00 1018 30.06 848 25.04 -3.7 25.3 62 -10.1 13.9
02:05 1018 30.06 848 25.04 -3.7 25.4 63 -9.7 14.5
02:10 1019 30.09 848 25.04 -3.9 24.9 63 -9.9 14.1
02:15 1019 30.09 848 25.04 -3.9 25 63 -9.9 14.2
02:20 1019 30.09 848 25.04 -4 24.8 64 -9.8 14.3
02:25 1019 30.09 848 25.04 -4.2 24.4 65 -9.8 14.3
02:30 1019 30.09 848 25.04 -4.2 24.5 64 -10 13.9
02:35 1019 30.09 848 25.04 -4 24.7 63 -10.1 13.8
02:40 1019 30.09 848 25.04 -3.9 25 63 -9.8 14.3
02:45 1019 30.09 848 25.04 -4 24.9 63 -9.9 14.1
02:50 1019 30.09 848 25.04 -4 24.7 64 -10 14.1
02:55 1019 30.09 848 25.04 -4 24.8 63 -10 13.9
03:00 1019 30.09 848 25.04 -3.8 25.2 62 -10.1 13.9
03:05 1019 30.09 848 25.04 -3.6 25.5 61 -10 14
03:10 1019 30.09 848 25.04 -3.5 25.8 60 -10.1 13.9
03:15 1019 30.09 848 25.04 -3.2 26.2 59 -10 13.9
03:20 1019 30.09 848 25.04 -2.9 26.7 59 -9.9 14.2
03:25 1019 30.09 848 25.04 -2.9 26.7 59 -9.8 14.3
03:30 1019 30.09 848 25.04 -3 26.5 59 -9.9 14.2
03:35 1019 30.09 848 25.04 -2.9 26.8 58 -10.1 13.8
03:40 1019 30.09 848 25.04 -2.5 27.4 59 -9.5 14.8
03:45 1019 30.09 848 25.04 -2.5 27.4 58 -9.7 14.5
03:50 1019 30.09 848 25.04 -2.6 27.4 58 -9.8 14.3
03:55 1019 30.09 848 25.04 -2.5 27.4 58 -9.7 14.6
04:00 1019 30.09 848 25.04 -2.7 27.1 59 -9.6 14.8
04:05 1019 30.09 848 25.04 -2.9 26.8 60 -9.7 14.6
04:10 1019 30.09 848 25.04 -3 26.6 61 -9.5 14.9
04:15 1019 30.09 848 25.04 -3 26.6 61 -9.6 14.8
04:20 1019 30.09 848 25.04 -3 26.6 61 -9.6 14.8
04:25 1019 30.09 848 25.04 -3 26.5 60 -9.7 14.6
04:30 1019 30.09 848 25.04 -2.8 26.9 59 -9.8 14.4
04:35 1019 30.09 848 25.04 -2.5 27.5 56 -10.2 13.7
04:40 1019 30.09 848 25.04 -2.1 28.1 56 -9.8 14.3
04:45 1019 30.09 848 25.04 -2.1 28.2 57 -9.5 14.9
04:50 1019 30.09 848 25.04 -2.9 26.8 64 -8.9 16
04:55 1019 30.09 848 25.04 -4 24.9 66 -9.3 15.2
05:00 1019 30.09 848 25.04 -4 24.9 66 -9.5 14.9
05:05 1019 30.09 848 25.04 -3.8 25.1 66 -9.3 15.3
05:10 1019 30.09 848 25.04 -3.9 25 66 -9.4 15
05:15 1019 30.09 848 25.04 -3.7 25.3 64 -9.5 14.9
05:20 1019 30.09 848 25.04 -3.7 25.4 65 -9.4 15.1
05:25 1019 30.09 848 25.04 -3.6 25.5 61 -10.1 13.8
05:30 1019 30.09 848 25.04 -2.7 27.2 56 -10.3 13.5
05:35 1019 30.09 848 25.04 -2.2 28 54 -10.2 13.6
05:40 1019 30.09 848 25.04 -2 28.5 54 -10.1 13.8
05:45 1019 30.09 848 25.04 -1.8 28.8 54 -10 13.9
05:50 1019 30.09 848 25.04 -1.8 28.7 55 -9.6 14.7
05:55 1019 30.09 848 25.04 -2 28.3 55 -10 14
06:00 1019 30.09 848 25.04 -1.9 28.5 55 -9.9 14.2
06:05 1019 30.09 848 25.04 -2 28.5 55 -9.9 14.1
06:10 1019 30.09 848 25.04 -2 28.4 54 -10.1 13.9
06:15 1019 30.09 848 25.04 -1.9 28.6 54 -10.1 13.9
06:20 1019 30.09 848 25.04 -1.9 28.5 55 -9.8 14.4
06:25 1019 30.09 848 25.04 -1.9 28.5 53 -10.2 13.7
06:30 1019 30.09 848 25.04 -1.8 28.8 54 -9.9 14.2
06:35 1019 30.09 848 25.04 -1.7 28.9 53 -10 14
06:40 1019 30.09 848 25.04 -1.7 29 53 -10.1 13.7
06:45 1019 30.09 848 25.04 -1.6 29.2 52 -10.1 13.9
06:50 1019 30.09 848 25.04 -1.6 29.2 53 -10.1 13.9
06:55 1019 30.09 848 25.04 -1.6 29.2 52 -10.2 13.6
07:00 1019 30.09 848 25.04 -1.6 29.2 53 -10 14.1
07:05 1019 30.09 848 25.04 -1.7 29 53 -10.1 13.8
07:10 1019 30.09 848 25.04 -1.6 29.1 54 -9.8 14.4
07:15 1019 30.09 848 25.04 -1.7 29 53 -10 13.9
07:20 1019 30.09 849 25.07 -1.7 29 52 -10.2 13.6
07:25 1019 30.09 849 25.07 -1.6 29.1 52 -10.3 13.5
07:30 1019 30.09 849 25.07 -1.6 29.1 52 -10.2 13.6
07:35 1019 30.09 849 25.07 -1.7 29 53 -10 13.9
07:40 1019 30.09 849 25.07 -1.8 28.7 51 -10.5 13
07:45 1019 30.09 849 25.07 -1.8 28.8 53 -10.2 13.6
07:50 1020 30.12 849 25.07 -1.8 28.7 53 -10.3 13.5
07:55 1020 30.12 849 25.07 -1.9 28.6 53 -10.2 13.6
08:00 1020 30.12 849 25.07 -1.9 28.6 52 -10.4 13.3
08:05 1019 30.09 849 25.07 -1.9 28.7 52 -10.5 13.1
08:10 1019 30.09 849 25.07 -2 28.4 53 -10.4 13.3
08:15 1019 30.09 849 25.07 -2.1 28.3 53 -10.4 13.3
08:20 1019 30.09 849 25.07 -2.1 28.1 53 -10.5 13.1
08:25 1019 30.09 849 25.07 -2.2 28.1 53 -10.5 13.1
08:30 1019 30.09 849 25.07 -2.3 27.9 52 -10.9 12.3
08:35 1019 30.09 849 25.07 -2.2 28 53 -10.5 13.1
08:40 1019 30.09 849 25.07 -2.4 27.7 54 -10.5 13
08:45 1020 30.12 849 25.07 -2.5 27.5 54 -10.5 13
08:50 1020 30.12 849 25.07 -2.4 27.6 52 -10.9 12.3
08:55 1020 30.12 849 25.07 -2.4 27.8 52 -10.9 12.3
09:00 1020 30.12 849 25.07 -2.3 27.8 51 -11.1 12
09:05 1020 30.12 849 25.07 -2.3 27.8 51 -11.1 11.9
09:10 1020 30.12 849 25.07 -2.3 27.9 51 -11.1 12.1
09:15 1019 30.09 849 25.07 -2.2 28.1 50 -11.3 11.7
09:20 1020 30.12 849 25.07 -2.1 28.2 50 -11.1 12
09:25 1020 30.12 849 25.07 -2.1 28.2 49 -11.5 11.4
09:30 1020 30.12 849 25.07 -2 28.4 51 -10.9 12.5
09:35 1020 30.12 849 25.07 -2.4 27.7 55 -10.2 13.6
09:40 1020 30.12 849 25.07 -2.5 27.4 52 -11.2 11.8
09:45 1020 30.12 849 25.07 -2 28.4 50 -11.2 11.9
09:50 1020 30.12 849 25.07 -1.7 29 48 -11.3 11.7
09:55 1020 30.12 849 25.07 -1.6 29 49 -11.1 12
10:00 1020 30.12 849 25.07 -1.6 29.1 48 -11.3 11.6
10:05 1020 30.12 849 25.07 -1.5 29.3 45 -12.1 10.3
10:10 1020 30.12 849 25.07 -1.3 29.7 46 -11.6 11.2
10:15 1020 30.12 849 25.07 -1.1 30.1 46 -11.3 11.7
10:20 1020 30.12 849 25.07 -1.1 30 45 -11.6 11.2
10:25 1020 30.12 849 25.07 -1.2 29.8 47 -11.2 11.9
10:30 1020 30.12 849 25.07 -1.2 29.8 44 -11.9 10.5
10:35 1020 30.12 849 25.07 -1.2 29.9 43 -12.2 10.1
10:40 1020 30.12 849 25.07 -1.2 29.8 43 -12.1 10.1
10:45 1020 30.12 849 25.07 -1.1 29.9 44 -12 10.4
10:50 1020 30.12 849 25.07 -1.2 29.8 44 -11.9 10.6
10:55 1020 30.12 849 25.07 -1.2 29.9 44 -11.9 10.6
11:00 1020 30.12 849 25.07 -1.2 29.9 46 -11.5 11.4
11:05 1020 30.12 849 25.07 -1.2 29.8 45 -11.6 11.2
11:10 1020 30.12 849 25.07 -1.1 29.9 45 -11.6 11.2
11:15 1020 30.12 849 25.07 -1 30.2 44 -11.8 10.8
11:20 1020 30.12 849 25.07 -0.8 30.6 43 -11.9 10.5
11:25 1020 30.12 849 25.07 -0.5 31.1 42 -12 10.3
11:30 1020 30.12 849 25.07 -0.4 31.3 39 -12.6 9.3
11:35 1020 30.12 849 25.07 -0.5 31.1 40 -12.5 9.6
11:40 1020 30.12 849 25.07 -0.4 31.3 40 -12.5 9.4
11:45 1020 30.12 849 25.07 -0.3 31.5 37 -13.2 8.3
11:50 1020 30.12 849 25.07 -0.5 31.1 40 -12.4 9.7
11:55 1020 30.12 849 25.07 -0.5 31.1 41 -12.3 9.9
12:00 1019 30.09 849 25.07 -0.5 31.1 42 -12 10.3
12:05 1019 30.09 849 25.07 -0.4 31.3 42 -11.9 10.6
12:10 1019 30.09 849 25.07 -0.5 31.1 43 -11.6 11.1
12:15 1019 30.09 849 25.07 -0 32 40 -12 10.5
12:20 1019 30.09 848 25.04 0.5 33 39 -11.9 10.6
12:25 1019 30.09 848 25.04 0.8 33.5 41 -11.1 12
12:30 1019 30.09 848 25.04 0.7 33.2 40 -11.4 11.4
12:35 1019 30.09 848 25.04 0.3 32.5 42 -11.3 11.7
12:40 1019 30.09 848 25.04 -0.1 31.8 43 -11.2 11.9
12:45 1019 30.09 848 25.04 0 32 41 -11.8 10.7
12:50 1019 30.09 848 25.04 0.1 32.1 42 -11.5 11.3
12:55 1019 30.09 848 25.04 0.2 32.3 41 -11.8 10.8
13:00 1019 30.09 848 25.04 0.2 32.3 39 -12.1 10.3
13:05 1019 30.09 848 25.04 0.2 32.3 40 -12 10.5
13:10 1019 30.09 848 25.04 0.1 32.1 41 -11.8 10.8
13:15 1019 30.09 848 25.04 -0.1 31.8 41 -12 10.5
13:20 1018 30.06 848 25.04 -0.1 31.7 42 -11.5 11.2
13:25 1019 30.09 848 25.04 -0.2 31.6 43 -11.3 11.7
13:30 1019 30.09 848 25.04 -0 31.9 43 -11.3 11.7
13:35 1019 30.09 848 25.04 -0.2 31.7 43 -11.4 11.5
13:40 1018 30.06 848 25.04 -0.2 31.6 42 -11.7 11
13:45 1018 30.06 848 25.04 -0.3 31.5 43 -11.3 11.6
13:50 1018 30.06 848 25.04 -0.4 31.3 42 -11.9 10.5
13:55 1018 30.06 847 25.01 -0.5 31.1 43 -11.5 11.3
14:00 1018 30.06 847 25.01 -0.6 30.9 41 -12.2 10
14:05 1018 30.06 847 25.01 -0.5 31.1 44 -11.4 11.4
14:10 1018 30.06 847 25.01 -0.4 31.3 42 -11.8 10.7
14:15 1018 30.06 847 25.01 -0.5 31.2 40 -12.4 9.8
14:20 1018 30.06 847 25.01 -0.3 31.5 40 -12.3 9.8
14:25 1018 30.06 847 25.01 -0.2 31.6 39 -12.5 9.5
14:30 1018 30.06 847 25.01 -0.1 31.8 39 -12.4 9.6
14:35 1018 30.06 847 25.01 -0.2 31.6 42 -11.6 11.1
14:40 1018 30.06 847 25.01 -0.4 31.2 41 -12.2 10.1
14:45 1018 30.06 847 25.01 -0.2 31.6 40 -12.2 10
14:50 1018 30.06 847 25.01 0 32.1 39 -12.3 9.9
14:55 1018 30.06 847 25.01 0.1 32.2 42 -11.5 11.4
15:00 1018 30.06 847 25.01 0.1 32.1 39 -12.2 10
15:05 1018 30.06 847 25.01 0 32.1 40 -12 10.4
15:10 1018 30.06 847 25.01 0 32 39 -12.3 9.9
15:15 1018 30.06 847 25.01 0.1 32.2 39 -12.3 9.9
15:20 1018 30.06 847 25.01 0.1 32.2 39 -12.2 10.1
15:25 1018 30.06 847 25.01 0.1 32.1 39 -12.2 10.1
15:30 1018 30.06 847 25.01 0.1 32.2 41 -11.6 11.2
15:35 1018 30.06 847 25.01 0.1 32.1 40 -11.9 10.5
15:40 1018 30.06 847 25.01 0.1 32.1 39 -12.2 10
15:45 1018 30.06 847 25.01 0.1 32.2 40 -11.8 10.7
15:50 1018 30.06 847 25.01 -0.2 31.7 40 -12.3 9.9
15:55 1018 30.06 847 25.01 -0.6 30.9 44 -11.6 11.2
16:00 1017 30.03 847 25.01 -1 30.3 44 -11.8 10.7
16:05 1017 30.03 847 25.01 -1.1 30.1 44 -11.8 10.7
16:10 1017 30.03 847 25.01 -1.1 30.1 45 -11.6 11
16:15 1017 30.03 847 25.01 -1.2 29.8 45 -11.6 11
16:20 1017 30.03 847 25.01 -1.3 29.6 47 -11.2 11.8
16:25 1017 30.03 847 25.01 -1.1 30 47 -11.1 12
16:30 1017 30.03 847 25.01 -0.9 30.4 48 -10.5 13.1
16:35 1017 30.03 847 25.01 -1 30.2 50 -10.3 13.5
16:40 1017 30.03 847 25.01 -1.2 29.8 50 -10.4 13.3
16:45 1017 30.03 847 25.01 -1.6 29.1 48 -11.2 11.9
16:50 1017 30.03 847 25.01 -1.9 28.6 51 -10.9 12.4
16:55 1018 30.06 847 25.01 -2 28.3 51 -10.8 12.5
17:00 1018 30.06 847 25.01 -2.1 28.2 53 -10.4 13.3
17:05 1018 30.06 847 25.01 -2.1 28.2 52 -10.7 12.8
17:10 1018 30.06 847 25.01 -2.3 27.8 53 -10.6 13
17:15 1018 30.06 847 25.01 -2.5 27.5 54 -10.6 13
17:20 1017 30.03 847 25.01 -2.6 27.4 54 -10.7 12.8
17:25 1018 30.06 847 25.01 -2.5 27.5 55 -10.4 13.3
17:30 1017 30.03 847 25.01 -2.6 27.4 53 -10.8 12.6
17:35 1017 30.03 847 25.01 -2.6 27.4 53 -10.9 12.4
17:40 1017 30.03 847 25.01 -2.5 27.4 53 -10.8 12.6
17:45 1017 30.03 846 24.98 -2.6 27.4 52 -11.1 12.1
17:50 1017 30.03 846 24.98 -2.4 27.7 52 -11 12.2
17:55 1017 30.03 846 24.98 -2.4 27.8 52 -10.9 12.3
18:00 1017 30.03 846 24.98 -2.5 27.5 52 -11 12.2
18:05 1017 30.03 846 24.98 -2.6 27.3 52 -11.1 12
18:10 1017 30.03 846 24.98 -2.6 27.3 53 -10.9 12.5
18:15 1017 30.03 846 24.98 -2.7 27.2 51 -11.5 11.3
18:20 1017 30.03 846 24.98 -2.5 27.5 50 -11.4 11.4
18:25 1017 30.03 846 24.98 -2.4 27.7 51 -11.2 11.8
18:30 1017 30.03 846 24.98 -2.4 27.7 49 -11.6 11.1
18:35 1017 30.03 846 24.98 -2.3 27.9 50 -11.5 11.3
18:40 1017 30.03 846 24.98 -2.4 27.7 50 -11.4 11.5
18:45 1017 30.03 846 24.98 -2.2 28 51 -11.1 12.1
18:50 1017 30.03 846 24.98 -2.2 28.1 44 -12.7 9.1
18:55 1017 30.03 846 24.98 -1.6 29.1 40 -13.7 7.4
19:00 1017 30.03 847 25.01 -1.1 30 42 -12.4 9.7
19:05 1017 30.03 847 25.01 -1 30.2 42 -12.3 9.9
19:10 1017 30.03 847 25.01 -0.9 30.3 42 -12.4 9.7
19:15 1017 30.03 847 25.01 -0.9 30.3 44 -11.8 10.7
19:20 1017 30.03 847 25.01 -1 30.2 45 -11.4 11.4
19:25 1017 30.03 847 25.01 -1.1 30.1 46 -11.3 11.7
19:30 1017 30.03 847 25.01 -1.6 29.1 56 -9.3 15.3
19:35 1017 30.03 847 25.01 -2.4 27.6 57 -9.8 14.3
19:40 1017 30.03 847 25.01 -2.9 26.9 56 -10.4 13.3
19:45 1018 30.06 847 25.01 -2.7 27.2 58 -9.8 14.4
19:50 1018 30.06 847 25.01 -2.5 27.4 57 -10 14
19:55 1017 30.03 847 25.01 -2.7 27.1 56 -10.3 13.5
20:00 1017 30.03 847 25.01 -2.7 27.2 56 -10.2 13.7
20:05 1017 30.03 847 25.01 -2.6 27.3 55 -10.5 13
20:10 1017 30.03 847 25.01 -2.6 27.3 54 -10.7 12.8
20:15 1017 30.03 847 25.01 -2.6 27.4 53 -10.9 12.3
20:20 1017 30.03 847 25.01 -2.7 27.2 52 -11.3 11.6
20:25 1017 30.03 847 25.01 -2.4 27.6 51 -11.1 12
20:30 1017 30.03 847 25.01 -2.4 27.6 54 -10.6 13
20:35 1018 30.06 847 25.01 -2.5 27.5 54 -10.7 12.8
20:40 1018 30.06 847 25.01 -2.6 27.4 57 -9.9 14.2
20:45 1018 30.06 847 25.01 -2.7 27.1 59 -9.7 14.5
20:50 1018 30.06 847 25.01 -2.8 27 63 -9 15.8
20:55 1018 30.06 847 25.01 -2.6 27.4 63 -8.7 16.3
21:00 1018 30.06 847 25.01 -2.6 27.3 65 -8.2 17.2
21:05 1018 30.06 847 25.01 -2.6 27.3 67 -7.9 17.8
21:10 1018 30.06 847 25.01 -2.8 27 72 -7 19.3
21:15 1018 30.06 847 25.01 -2.9 26.7 77 -6.4 20.4
21:20 1018 30.06 847 25.01 -3 26.7 79 -6.1 21.1
21:25 1018 30.06 847 25.01 -2.9 26.7 81 -5.7 21.7
21:30 1018 30.06 847 25.01 -3 26.6 83 -5.6 22
21:35 1018 30.06 847 25.01 -3 26.5 84 -5.4 22.2
21:40 1018 30.06 848 25.04 -3.1 26.5 84 -5.4 22.3
21:45 1018 30.06 848 25.04 -3.2 26.3 85 -5.3 22.5
21:50 1019 30.09 848 25.04 -3.2 26.2 87 -5.1 22.9
21:55 1019 30.09 848 25.04 -3.3 26.1 88 -4.9 23.1
22:00 1019 30.09 848 25.04 -3.4 25.9 89 -4.9 23.2
22:05 1019 30.09 848 25.04 -3.4 25.8 91 -4.7 23.5
22:10 1019 30.09 848 25.04 -3.5 25.7 92 -4.6 23.7
22:15 1019 30.09 848 25.04 -3.6 25.5 93 -4.5 23.9
22:20 1019 30.09 848 25.04 -3.7 25.4 94 -4.5 23.9
22:25 1018 30.06 848 25.04 -3.8 25.2 95 -4.5 23.9
22:30 1018 30.06 848 25.04 -3.8 25.1 95 -4.5 23.8
22:35 1018 30.06 847 25.01 -3.8 25.1 94 -4.6 23.7
22:40 1018 30.06 847 25.01 -4 24.9 95 -4.7 23.6
22:45 1018 30.06 847 25.01 -4 24.8 94 -4.8 23.4
22:50 1018 30.06 847 25.01 -4 24.9 94 -4.8 23.4
22:55 1018 30.06 847 25.01 -4 24.9 93 -4.9 23.2
23:00 1018 30.06 848 25.04 -3.9 24.9 92 -5 23
23:05 1018 30.06 848 25.04 -3.8 25.1 91 -5.1 22.8
23:10 1018 30.06 848 25.04 -3.8 25.1 90 -5.2 22.6
23:15 1018 30.06 848 25.04 -3.7 25.3 89 -5.4 22.3
23:20 1018 30.06 848 25.04 -3.7 25.4 87 -5.6 21.9
23:25 1018 30.06 848 25.04 -3.6 25.4 86 -5.6 21.9
23:30 1018 30.06 848 25.04 -3.6 25.5 84 -5.8 21.5
23:35 1018 30.06 848 25.04 -3.5 25.6 83 -5.9 21.3
23:40 1018 30.06 847 25.01 -3.5 25.7 83 -6 21.1
23:45 1018 30.06 847 25.01 -3.5 25.7 82 -6.1 21
23:50 1018 30.06 847 25.01 -3.5 25.7 82 -6.1 20.9
23:55 1018 30.06 847 25.01 -3.5 25.7 82 -6.2 20.8
24:00 1018 30.06 847 25.01 -3.5 25.7 80 -6.5 20.3